Time;durP1;ratioP1;P1;durP2;ratioP2;P2;SDS_P1;SDS_P2;PMS_P1;PMS_P2;Temp;Humidity;BMP_temperature;BMP_pressure;BME280_temperature;BME280_humidity;BME280_pressure;Samples;Min_cycle;Max_cycle;Signal;HPM_P1;HPM_P2
2022/09/27 00:01:53;;;;;;;10.23;6.53;;;21.20;76.60;;;;;;4999922;28;20244;-78
2022/09/27 00:04:21;;;;;;;10.05;6.28;;;21.20;76.60;;;;;;5002678;28;20232;-78
2022/09/27 00:06:49;;;;;;;10.77;6.50;;;21.20;76.90;;;;;;4998737;28;20614;-77
2022/09/27 00:09:18;;;;;;;10.80;6.10;;;21.20;76.80;;;;;;5000679;28;20215;-77
2022/09/27 00:11:47;;;;;;;10.13;6.63;;;21.20;77.70;;;;;;5001497;28;20271;-77
2022/09/27 00:14:17;;;;;;;11.93;6.55;;;21.20;77.00;;;;;;5003217;28;20200;-78
2022/09/27 00:16:47;;;;;;;10.20;6.60;;;21.20;77.00;;;;;;4999785;28;20201;-78
2022/09/27 00:19:18;;;;;;;10.57;6.93;;;21.20;77.20;;;;;;5009238;28;20636;-78
2022/09/27 00:21:47;;;;;;;11.48;7.10;;;21.20;77.30;;;;;;5004489;28;20256;-78
2022/09/27 00:24:17;;;;;;;11.50;7.60;;;21.20;77.80;;;;;;5008054;28;20193;-79
2022/09/27 00:26:46;;;;;;;12.57;7.85;;;21.20;79.00;;;;;;5008067;28;20251;-78
2022/09/27 00:29:16;;;;;;;10.55;7.70;;;21.10;79.80;;;;;;5000758;28;20717;-79
2022/09/27 00:31:46;;;;;;;12.93;8.30;;;21.10;79.70;;;;;;5003740;28;20228;-79
2022/09/27 00:34:20;;;;;;;11.70;8.10;;;21.00;79.50;;;;;;5005806;28;20186;-78
2022/09/27 00:36:48;;;;;;;14.83;8.30;;;21.00;79.50;;;;;;5009070;28;20235;-79
2022/09/27 00:39:17;;;;;;;15.85;9.38;;;21.00;79.70;;;;;;5005784;28;20255;-79
2022/09/27 00:41:46;;;;;;;12.90;9.13;;;21.00;80.00;;;;;;5005414;28;20278;-79
2022/09/27 00:44:59;;;;;;;19.43;8.70;;;21.00;80.70;;;;;;5006222;28;20258;-79
2022/09/27 00:47:34;;;;;;;15.93;8.77;;;20.90;81.00;;;;;;5004212;28;20189;-80
2022/09/27 00:50:10;;;;;;;15.03;9.07;;;20.80;81.40;;;;;;5007898;28;20204;-80
2022/09/27 00:52:44;;;;;;;13.00;8.40;;;20.80;81.40;;;;;;5011503;28;20224;-80
2022/09/27 00:55:16;;;;;;;13.13;8.13;;;20.80;81.80;;;;;;5006756;28;20200;-80
2022/09/27 00:57:47;;;;;;;14.47;8.47;;;20.80;81.70;;;;;;5011295;28;20220;-79
2022/09/27 01:00:16;;;;;;;12.17;8.17;;;20.80;82.30;;;;;;5001127;28;20212;-80
2022/09/27 01:02:49;;;;;;;12.63;8.40;;;20.70;82.50;;;;;;5008591;28;20192;-79
2022/09/27 01:05:21;;;;;;;12.90;8.87;;;20.70;83.30;;;;;;5007577;28;20192;-80
2022/09/27 01:07:50;;;;;;;13.30;7.83;;;20.60;83.00;;;;;;5005941;28;20663;-80
2022/09/27 01:10:21;;;;;;;12.57;8.50;;;20.60;83.00;;;;;;5002609;28;20255;-80
2022/09/27 01:12:59;;;;;;;11.17;8.07;;;20.60;83.50;;;;;;5010440;28;20188;-79
2022/09/27 01:15:37;;;;;;;13.67;7.83;;;20.60;83.30;;;;;;5010810;28;20619;-80
2022/09/27 01:18:21;;;;;;;11.83;8.13;;;20.60;83.10;;;;;;5001156;28;20214;-80
2022/09/27 01:21:16;;;;;;;12.90;7.60;;;20.60;83.10;;;;;;5006409;28;20262;-79
2022/09/27 01:24:21;;;;;;;10.30;7.43;;;20.60;83.10;;;;;;5005953;28;20243;-79
2022/09/27 01:27:17;;;;;;;11.30;7.93;;;20.60;83.10;;;;;;5001319;28;20253;-79
2022/09/27 01:30:02;;;;;;;12.00;8.17;;;20.60;83.10;;;;;;5007685;28;20236;-79
2022/09/27 01:32:37;;;;;;;11.63;7.60;;;20.60;83.00;;;;;;5004636;28;20254;-81
2022/09/27 01:35:10;;;;;;;12.20;7.50;;;20.60;83.90;;;;;;5001516;28;20622;-78
2022/09/27 01:37:50;;;;;;;13.37;7.43;;;20.60;83.50;;;;;;5002445;28;20227;-79
2022/09/27 01:40:25;;;;;;;10.77;6.97;;;20.50;83.60;;;;;;5003711;28;20192;-80
2022/09/27 01:43:01;;;;;;;11.20;7.40;;;20.50;83.60;;;;;;5009104;28;20196;-79
2022/09/27 01:45:35;;;;;;;10.53;6.40;;;20.50;84.20;;;;;;5004131;28;20196;-80
2022/09/27 01:48:10;;;;;;;10.97;6.73;;;20.50;84.00;;;;;;5007447;28;20200;-79
2022/09/27 01:50:44;;;;;;;10.43;6.90;;;20.50;84.70;;;;;;5011499;28;20197;-80
2022/09/27 01:53:18;;;;;;;9.43;6.47;;;20.50;84.60;;;;;;5010248;28;20228;-79
2022/09/27 01:55:49;;;;;;;10.07;6.80;;;20.40;84.50;;;;;;5007586;28;20196;-79
2022/09/27 01:58:23;;;;;;;12.37;7.13;;;20.40;84.70;;;;;;5009411;28;20196;-79
2022/09/27 02:00:54;;;;;;;10.60;6.80;;;20.40;85.60;;;;;;5002944;28;20867;-80
2022/09/27 02:03:26;;;;;;;12.63;6.97;;;20.40;85.60;;;;;;5000533;28;20774;-80
2022/09/27 02:06:00;;;;;;;14.53;6.83;;;20.30;85.60;;;;;;5005881;28;20224;-79
2022/09/27 02:08:35;;;;;;;9.87;6.23;;;20.30;85.60;;;;;;5009704;28;20192;-80
2022/09/27 02:11:08;;;;;;;10.83;6.43;;;20.30;85.80;;;;;;5003143;28;20309;-79
2022/09/27 02:13:44;;;;;;;12.50;6.37;;;20.30;85.90;;;;;;4999931;28;20220;-79
2022/09/27 02:16:21;;;;;;;9.77;6.63;;;20.30;85.90;;;;;;5004992;28;20234;-78
2022/09/27 02:18:58;;;;;;;10.20;6.23;;;20.40;86.00;;;;;;4998639;28;20598;-79
2022/09/27 02:21:36;;;;;;;12.50;6.20;;;20.30;86.30;;;;;;5008101;28;20276;-79
2022/09/27 02:24:09;;;;;;;10.13;6.30;;;20.30;87.10;;;;;;4995884;28;20625;-78
2022/09/27 02:26:41;;;;;;;8.77;6.03;;;20.30;87.40;;;;;;5002387;28;20224;-79
2022/09/27 02:29:13;;;;;;;10.50;6.47;;;20.20;87.20;;;;;;5004012;28;20197;-79
2022/09/27 02:31:42;;;;;;;13.90;6.60;;;20.20;87.10;;;;;;5011085;28;20254;-80
2022/09/27 02:34:16;;;;;;;9.80;5.53;;;20.30;87.10;;;;;;5003219;28;20279;-79
2022/09/27 02:36:45;;;;;;;11.27;6.87;;;20.20;87.10;;;;;;4999590;28;20251;-79
2022/09/27 02:39:13;;;;;;;10.75;7.00;;;20.20;87.10;;;;;;5003680;28;20436;-80
2022/09/27 02:41:42;;;;;;;8.43;6.20;;;20.20;87.80;;;;;;5006710;28;20270;-79
2022/09/27 02:44:13;;;;;;;8.20;5.97;;;20.20;87.80;;;;;;5007648;28;20654;-80
2022/09/27 02:47:07;;;;;;;9.77;5.90;;;20.20;87.80;;;;;;5003512;28;20196;-80
2022/09/27 02:49:50;;;;;;;8.33;5.67;;;20.20;88.20;;;;;;5011541;28;20243;-79
2022/09/27 02:52:28;;;;;;;10.53;6.33;;;20.20;88.70;;;;;;5005782;28;20235;-79
2022/09/27 02:55:08;;;;;;;12.90;6.23;;;20.20;88.40;;;;;;5004248;28;20212;-79
2022/09/27 02:57:58;;;;;;;10.53;6.93;;;20.20;88.60;;;;;;5007822;28;20668;-79
2022/09/27 03:00:34;;;;;;;12.70;7.00;;;20.20;89.20;;;;;;5005001;28;20613;-80
2022/09/27 03:03:09;;;;;;;11.63;7.27;;;20.10;89.70;;;;;;5005379;28;20240;-79
2022/09/27 03:05:43;;;;;;;11.67;7.53;;;20.10;90.20;;;;;;4998170;28;20243;-79
2022/09/27 03:08:12;;;;;;;11.67;7.83;;;20.10;90.50;;;;;;4998625;28;20750;-79
2022/09/27 03:10:41;;;;;;;12.83;8.07;;;20.10;90.80;;;;;;5004639;28;20254;-78
2022/09/27 03:13:09;;;;;;;11.90;7.60;;;20.00;90.90;;;;;;5001839;28;20200;-78
2022/09/27 03:15:38;;;;;;;14.23;7.77;;;20.00;91.10;;;;;;5002839;28;20193;-78
2022/09/27 03:18:06;;;;;;;11.50;8.10;;;20.00;91.10;;;;;;5004601;28;20232;-79
2022/09/27 03:20:35;;;;;;;12.20;7.83;;;20.00;91.20;;;;;;4991796;28;20204;-79
2022/09/27 03:23:05;;;;;;;11.67;7.27;;;19.90;91.30;;;;;;5004593;28;20329;-78
2022/09/27 03:25:33;;;;;;;11.63;7.93;;;19.90;91.50;;;;;;5000831;28;20286;-79
2022/09/27 03:28:02;;;;;;;12.53;7.53;;;19.80;91.60;;;;;;5005559;28;20228;-78
2022/09/27 03:30:30;;;;;;;10.87;7.10;;;19.80;92.00;;;;;;5001961;28;20185;-80
2022/09/27 03:32:59;;;;;;;11.10;7.43;;;19.80;92.10;;;;;;5008716;28;20192;-78
2022/09/27 03:35:27;;;;;;;11.90;7.17;;;19.80;92.30;;;;;;5001647;28;20215;-78
2022/09/27 03:37:55;;;;;;;12.37;7.50;;;19.70;92.40;;;;;;5002721;28;20212;-78
2022/09/27 03:40:25;;;;;;;10.87;6.83;;;19.70;92.30;;;;;;5008280;28;20737;-78
2022/09/27 03:42:54;;;;;;;9.83;6.70;;;19.60;92.50;;;;;;4999762;28;20229;-78
2022/09/27 03:45:23;;;;;;;11.17;7.57;;;19.70;92.40;;;;;;5005255;28;20227;-77
2022/09/27 03:47:51;;;;;;;14.27;6.67;;;19.70;92.50;;;;;;5004991;28;20200;-78
2022/09/27 03:50:19;;;;;;;12.50;7.43;;;19.70;92.60;;;;;;5003356;28;20227;-77
2022/09/27 03:52:48;;;;;;;14.47;7.50;;;19.60;92.60;;;;;;5009022;28;20188;-78
2022/09/27 03:55:16;;;;;;;11.60;6.50;;;19.60;92.70;;;;;;5005774;28;20255;-78
2022/09/27 03:57:47;;;;;;;8.90;6.83;;;19.60;92.90;;;;;;4993430;28;20602;-78
2022/09/27 04:00:16;;;;;;;10.67;7.47;;;19.60;93.00;;;;;;5003699;28;20330;-78
2022/09/27 04:02:44;;;;;;;11.87;7.03;;;19.60;93.00;;;;;;5002445;28;20247;-78
2022/09/27 04:05:13;;;;;;;11.17;7.07;;;19.60;93.20;;;;;;5002823;28;20188;-78
2022/09/27 04:07:45;;;;;;;10.90;7.23;;;19.50;93.10;;;;;;4993195;28;20730;-78
2022/09/27 04:10:14;;;;;;;12.00;7.40;;;19.50;93.40;;;;;;4993523;28;20262;-77
2022/09/27 04:12:42;;;;;;;15.07;8.13;;;19.50;93.50;;;;;;4998445;28;20221;-78
2022/09/27 04:15:12;;;;;;;12.00;7.77;;;19.50;93.50;;;;;;5008318;28;20200;-78
2022/09/27 04:17:42;;;;;;;13.43;7.80;;;19.50;93.50;;;;;;5000944;28;20243;-78
2022/09/27 04:20:11;;;;;;;13.73;8.30;;;19.50;93.60;;;;;;5010759;28;20243;-77
2022/09/27 04:22:42;;;;;;;12.87;8.60;;;19.50;93.60;;;;;;5000107;28;20251;-77
2022/09/27 04:25:11;;;;;;;13.50;8.33;;;19.40;93.70;;;;;;5014053;28;20225;-77
2022/09/27 04:27:44;;;;;;;16.27;9.07;;;19.40;93.80;;;;;;5001690;28;20200;-77
2022/09/27 04:30:14;;;;;;;12.47;8.63;;;19.40;93.90;;;;;;4998980;28;20231;-78
2022/09/27 04:32:44;;;;;;;15.03;8.13;;;19.50;94.30;;;;;;5010323;28;20199;-78
2022/09/27 04:38:13;;;;;;;13.47;8.80;;;19.40;94.30;;;;;;4984751;28;20694;-77
2022/09/27 04:40:42;;;;;;;14.87;9.37;;;19.40;94.20;;;;;;4987336;28;20221;-79
2022/09/27 04:43:10;;;;;;;16.80;8.97;;;19.40;94.40;;;;;;4988666;28;20374;-78
2022/09/27 04:45:40;;;;;;;13.97;8.80;;;19.40;94.40;;;;;;5010639;28;20188;-78
2022/09/27 04:48:08;;;;;;;13.63;8.60;;;19.30;94.60;;;;;;5006794;28;20209;-78
2022/09/27 04:50:38;;;;;;;15.30;9.07;;;19.30;94.80;;;;;;5004883;28;20605;-78
2022/09/27 04:53:07;;;;;;;17.13;10.40;;;19.30;94.80;;;;;;5008856;28;20270;-77
2022/09/27 04:55:35;;;;;;;13.70;9.63;;;19.30;95.00;;;;;;5007148;28;20201;-77
2022/09/27 04:58:03;;;;;;;17.27;10.93;;;19.30;95.30;;;;;;5005931;28;20242;-78
2022/09/27 05:00:32;;;;;;;16.53;10.60;;;19.30;95.20;;;;;;5005330;28;20279;-78
2022/09/27 05:03:02;;;;;;;14.27;9.67;;;19.30;95.40;;;;;;5008382;28;20220;-78
2022/09/27 05:05:30;;;;;;;15.93;9.87;;;19.30;95.40;;;;;;5008217;28;20192;-79
2022/09/27 05:07:59;;;;;;;15.23;10.07;;;19.20;95.60;;;;;;5009341;28;20283;-78
2022/09/27 05:10:27;;;;;;;19.73;10.80;;;19.30;95.70;;;;;;5008405;28;20204;-79
2022/09/27 05:12:55;;;;;;;17.83;10.30;;;19.20;95.60;;;;;;5011538;28;20228;-78
2022/09/27 05:15:24;;;;;;;22.77;10.67;;;19.30;95.70;;;;;;5012954;28;20204;-78
2022/09/27 05:17:52;;;;;;;16.27;10.53;;;19.20;95.90;;;;;;5010948;28;20196;-78
2022/09/27 05:20:24;;;;;;;18.20;10.67;;;19.20;95.80;;;;;;5008007;28;20234;-77
2022/09/27 05:22:52;;;;;;;17.27;10.73;;;19.20;96.00;;;;;;5005681;28;20291;-78
2022/09/27 05:25:24;;;;;;;15.77;10.53;;;19.20;95.90;;;;;;5005931;28;20188;-79
2022/09/27 05:27:53;;;;;;;14.57;10.00;;;19.30;96.00;;;;;;5002727;28;20618;-79
2022/09/27 05:30:21;;;;;;;16.80;10.03;;;19.20;96.20;;;;;;5009003;28;20599;-78
2022/09/27 05:32:50;;;;;;;19.03;11.43;;;19.20;96.40;;;;;;5011447;28;20231;-79
2022/09/27 05:35:18;;;;;;;15.63;10.93;;;19.20;96.80;;;;;;5010165;28;20265;-78
2022/09/27 05:37:53;;;;;;;18.30;10.47;;;19.20;96.80;;;;;;5004181;28;20649;-79
2022/09/27 05:40:25;;;;;;;14.33;10.07;;;19.20;96.80;;;;;;5003260;28;20196;-80
2022/09/27 05:43:10;;;;;;;15.10;10.43;;;19.20;97.10;;;;;;5006877;28;20669;-79
2022/09/27 05:45:38;;;;;;;17.20;10.77;;;19.20;97.00;;;;;;5013245;28;20258;-78
2022/09/27 05:48:07;;;;;;;16.50;10.60;;;19.20;97.30;;;;;;5011915;28;20283;-78
2022/09/27 05:50:36;;;;;;;18.20;10.27;;;19.20;97.30;;;;;;5011088;28;20645;-79
2022/09/27 05:53:06;;;;;;;14.90;9.97;;;19.20;97.30;;;;;;5011496;28;20199;-78
2022/09/27 05:55:34;;;;;;;16.47;10.37;;;19.20;97.30;;;;;;5014517;28;21241;-79
2022/09/27 05:58:05;;;;;;;15.70;10.07;;;19.30;97.30;;;;;;5011534;28;20201;-78
2022/09/27 06:00:34;;;;;;;15.83;10.13;;;19.30;97.40;;;;;;5008445;28;20598;-79
2022/09/27 06:03:06;;;;;;;16.43;10.73;;;19.30;97.40;;;;;;5009336;28;20700;-78
2022/09/27 06:05:37;;;;;;;16.67;10.87;;;19.30;97.50;;;;;;5011994;28;20193;-78
2022/09/27 06:08:09;;;;;;;16.17;11.18;;;19.30;97.50;;;;;;5011391;28;20924;-79
2022/09/27 06:10:38;;;;;;;16.47;10.40;;;19.30;97.70;;;;;;5009868;28;20197;-78
2022/09/27 06:13:10;;;;;;;20.57;11.00;;;19.30;97.70;;;;;;5011536;28;20571;-78
2022/09/27 06:15:40;;;;;;;15.00;10.23;;;19.40;97.60;;;;;;5013329;28;20657;-78
2022/09/27 06:18:10;;;;;;;15.97;10.33;;;19.40;97.60;;;;;;5013214;28;20600;-78
2022/09/27 06:20:40;;;;;;;16.80;10.37;;;19.50;97.50;;;;;;5008640;28;20259;-79
2022/09/27 06:23:11;;;;;;;17.03;9.67;;;19.50;97.40;;;;;;5011616;28;20224;-79
2022/09/27 06:25:40;;;;;;;16.23;10.40;;;19.50;97.50;;;;;;5010374;28;20184;-79
2022/09/27 06:28:09;;;;;;;15.73;9.30;;;19.50;97.40;;;;;;4998146;28;20232;-78
2022/09/27 06:30:40;;;;;;;17.63;10.00;;;19.60;97.30;;;;;;5010438;28;20192;-78
2022/09/27 06:33:11;;;;;;;13.93;9.00;;;19.60;97.20;;;;;;5007698;28;20243;-78
2022/09/27 06:35:41;;;;;;;17.57;9.90;;;19.60;97.10;;;;;;5007132;28;20707;-77
2022/09/27 06:38:14;;;;;;;14.10;8.90;;;19.60;97.40;;;;;;5011951;28;20197;-78
2022/09/27 06:40:44;;;;;;;16.00;9.20;;;19.70;97.20;;;;;;5007615;28;20215;-77
2022/09/27 06:43:14;;;;;;;15.77;9.63;;;19.60;97.30;;;;;;5009372;28;20215;-78
2022/09/27 06:45:45;;;;;;;14.80;8.37;;;19.70;97.20;;;;;;5009565;28;20527;-78
2022/09/27 06:48:17;;;;;;;13.03;8.67;;;19.70;97.20;;;;;;5013985;28;20199;-77
2022/09/27 06:50:47;;;;;;;15.93;9.10;;;19.80;97.00;;;;;;5007844;28;20231;-77
2022/09/27 06:53:20;;;;;;;19.03;9.87;;;19.80;96.80;;;;;;5002468;28;20202;-78
2022/09/27 06:55:52;;;;;;;13.90;9.03;;;19.90;96.80;;;;;;4994556;28;20345;-79
2022/09/27 07:01:06;;;;;;;13.80;8.93;;;19.90;96.50;;;;;;4997596;28;20235;-78
2022/09/27 07:03:38;;;;;;;13.17;8.93;;;20.00;96.40;;;;;;5008921;28;20290;-78
2022/09/27 07:06:17;;;;;;;14.10;8.97;;;20.00;96.30;;;;;;5011336;28;21002;-78
2022/09/27 07:08:53;;;;;;;14.17;8.83;;;20.10;96.30;;;;;;5010465;28;20238;-78
2022/09/27 07:11:22;;;;;;;16.03;9.60;;;20.00;96.30;;;;;;5009778;28;20247;-78
2022/09/27 07:13:51;;;;;;;15.57;9.53;;;20.10;96.20;;;;;;5010607;28;20196;-79
2022/09/27 07:16:19;;;;;;;14.30;9.13;;;20.20;96.10;;;;;;5022030;28;20238;-78
2022/09/27 07:18:51;;;;;;;13.33;9.27;;;20.20;96.10;;;;;;5009959;28;20192;-78
2022/09/27 07:21:20;;;;;;;14.60;8.63;;;20.20;96.00;;;;;;5012343;28;20250;-77
2022/09/27 07:23:50;;;;;;;15.87;9.80;;;20.20;96.00;;;;;;5006119;28;20231;-77
2022/09/27 07:26:18;;;;;;;16.47;9.57;;;20.20;96.10;;;;;;5008224;28;20552;-77
2022/09/27 07:28:46;;;;;;;13.97;9.20;;;20.20;96.10;;;;;;5007276;28;20283;-76
2022/09/27 07:31:15;;;;;;;18.87;10.60;;;20.20;96.10;;;;;;5006951;28;20255;-76
2022/09/27 07:33:44;;;;;;;12.80;8.77;;;20.20;96.10;;;;;;5008779;28;20295;-78
2022/09/27 07:36:13;;;;;;;14.17;9.23;;;20.20;96.00;;;;;;5005870;28;20247;-78
2022/09/27 07:38:42;;;;;;;16.20;9.83;;;20.20;95.80;;;;;;5008241;28;20715;-78
2022/09/27 07:41:14;;;;;;;14.40;9.27;;;20.30;95.80;;;;;;5009876;28;20196;-77
2022/09/27 07:43:43;;;;;;;16.10;9.07;;;20.30;95.80;;;;;;5011197;28;20250;-78
2022/09/27 07:46:12;;;;;;;14.90;9.38;;;20.30;95.60;;;;;;5011509;28;20204;-77
2022/09/27 07:48:41;;;;;;;17.30;10.07;;;20.30;95.60;;;;;;5010530;28;20189;-80
2022/09/27 07:51:10;;;;;;;14.23;9.40;;;20.40;95.60;;;;;;5011177;28;20228;-79
2022/09/27 07:53:39;;;;;;;17.42;9.98;;;20.40;95.60;;;;;;5007905;28;20561;-77
2022/09/27 07:56:08;;;;;;;14.73;8.90;;;20.40;95.50;;;;;;5009179;28;20200;-76
2022/09/27 07:58:39;;;;;;;13.47;10.30;;;20.40;95.60;;;;;;5013447;28;20238;-78
2022/09/27 08:01:07;;;;;;;14.02;9.68;;;20.40;95.60;;;;;;5016134;28;20204;-79
2022/09/27 08:03:36;;;;;;;14.73;9.90;;;20.40;95.60;;;;;;5010744;28;20224;-79
2022/09/27 08:06:05;;;;;;;13.43;8.95;;;20.50;95.60;;;;;;5011033;28;20654;-78
2022/09/27 08:08:33;;;;;;;15.18;9.80;;;20.50;95.50;;;;;;5011635;28;20200;-79
2022/09/27 08:11:02;;;;;;;15.13;9.60;;;20.50;95.50;;;;;;5009720;28;20238;-78
2022/09/27 08:13:30;;;;;;;13.07;9.23;;;20.50;95.70;;;;;;5010971;28;20220;-79
2022/09/27 08:16:03;;;;;;;13.48;8.90;;;20.60;95.70;;;;;;5013011;28;20207;-79
2022/09/27 08:18:32;;;;;;;12.55;8.48;;;20.60;95.80;;;;;;5010710;28;20287;-79
2022/09/27 08:21:01;;;;;;;13.00;8.52;;;20.60;95.70;;;;;;5015817;28;20196;-79
2022/09/27 08:23:31;;;;;;;13.93;8.88;;;20.60;95.60;;;;;;5008598;28;20204;-78
2022/09/27 08:26:01;;;;;;;13.38;8.50;;;20.60;95.50;;;;;;5011632;28;20715;-78
2022/09/27 08:28:30;;;;;;;12.65;9.10;;;20.60;95.50;;;;;;5017648;28;20211;-77
2022/09/27 08:30:59;;;;;;;15.10;8.52;;;20.60;95.40;;;;;;5014001;28;20303;-78
2022/09/27 08:33:29;;;;;;;12.40;8.00;;;20.70;95.40;;;;;;5013871;28;20208;-77
2022/09/27 08:36:02;;;;;;;11.68;8.38;;;20.80;95.50;;;;;;5015673;28;20276;-78
2022/09/27 08:38:31;;;;;;;15.60;9.02;;;20.80;95.50;;;;;;5015836;28;20603;-77
2022/09/27 08:41:06;;;;;;;11.68;7.80;;;20.90;95.50;;;;;;5012932;28;20203;-78
2022/09/27 08:43:45;;;;;;;13.30;8.65;;;20.90;95.30;;;;;;5015153;28;20640;-77
2022/09/27 08:46:26;;;;;;;11.55;7.97;;;20.90;95.20;;;;;;5008119;28;20239;-78
2022/09/27 08:49:04;;;;;;;11.57;7.95;;;20.90;95.10;;;;;;5015066;28;20653;-78
2022/09/27 08:51:35;;;;;;;13.93;8.70;;;20.90;95.00;;;;;;5007026;28;20242;-78
2022/09/27 08:54:06;;;;;;;16.90;9.15;;;21.00;94.90;;;;;;5004036;28;20612;-80
2022/09/27 08:56:38;;;;;;;11.98;7.93;;;21.00;94.90;;;;;;5008782;28;20193;-79
2022/09/27 08:59:13;;;;;;;12.13;8.40;;;21.00;94.80;;;;;;5010243;28;20197;-79
2022/09/27 09:01:42;;;;;;;11.40;7.55;;;21.10;94.70;;;;;;5008826;28;20274;-78
2022/09/27 09:04:15;;;;;;;12.20;7.40;;;21.10;94.60;;;;;;5009044;28;20220;-80
2022/09/27 09:06:57;;;;;;;11.35;7.80;;;21.10;94.60;;;;;;5006300;28;20196;-78
2022/09/27 09:09:38;;;;;;;11.70;7.40;;;21.10;94.40;;;;;;5009586;28;20220;-79
2022/09/27 09:15:19;;;;;;;9.98;6.60;;;21.20;94.10;;;;;;5008451;28;20196;-77
2022/09/27 09:18:16;;;;;;;8.45;6.13;;;21.30;94.10;;;;;;5005746;28;20220;-78
2022/09/27 09:20:58;;;;;;;9.82;6.43;;;21.30;93.90;;;;;;5002035;28;20638;-78
2022/09/27 09:23:57;;;;;;;9.55;6.50;;;21.30;93.80;;;;;;5010459;28;20250;-78
2022/09/27 09:26:34;;;;;;;12.40;6.78;;;21.30;93.70;;;;;;5006790;28;20306;-77
2022/09/27 09:29:24;;;;;;;9.35;6.30;;;21.40;93.70;;;;;;5006819;28;20258;-76
2022/09/27 09:32:03;;;;;;;10.38;6.82;;;21.40;93.60;;;;;;5009607;28;20193;-79
2022/09/27 09:34:38;;;;;;;12.82;6.20;;;21.40;93.50;;;;;;5014205;28;20195;-78
2022/09/27 09:37:14;;;;;;;10.73;6.65;;;21.40;93.40;;;;;;5008733;28;20278;-77
2022/09/27 09:39:45;;;;;;;8.13;6.07;;;21.50;93.30;;;;;;5007220;28;20563;-78
2022/09/27 09:42:20;;;;;;;11.23;6.50;;;21.50;93.20;;;;;;5008352;28;20192;-78
2022/09/27 09:44:54;;;;;;;9.88;5.65;;;21.50;93.20;;;;;;5009867;28;20607;-79
2022/09/27 09:47:31;;;;;;;8.07;5.32;;;21.60;93.10;;;;;;5008830;28;20195;-77
2022/09/27 09:50:04;;;;;;;7.75;6.00;;;21.60;92.90;;;;;;5006592;28;20715;-79
2022/09/27 09:52:42;;;;;;;12.07;5.75;;;21.70;92.80;;;;;;5012076;28;20192;-78
2022/09/27 09:55:19;;;;;;;13.38;6.03;;;21.70;92.70;;;;;;5006510;28;20242;-79
2022/09/27 09:57:58;;;;;;;10.57;5.47;;;21.80;92.60;;;;;;5006156;28;20204;-79
2022/09/27 10:00:27;;;;;;;9.38;5.13;;;21.80;92.50;;;;;;5010614;28;20192;-78
2022/09/27 10:02:59;;;;;;;8.05;5.50;;;21.90;92.30;;;;;;5006496;28;20219;-79
2022/09/27 10:05:29;;;;;;;8.18;4.85;;;21.90;92.00;;;;;;5012283;28;20212;-78
2022/09/27 10:08:01;;;;;;;7.80;4.97;;;22.00;91.80;;;;;;5011098;28;20240;-79
2022/09/27 10:10:30;;;;;;;8.82;5.13;;;22.00;91.50;;;;;;5010923;28;20226;-79
2022/09/27 10:12:59;;;;;;;7.65;4.70;;;22.00;91.50;;;;;;5004684;28;20258;-78
2022/09/27 10:15:30;;;;;;;9.10;4.57;;;22.10;91.30;;;;;;5024019;28;20602;-77
2022/09/27 10:18:00;;;;;;;6.72;4.55;;;22.10;90.90;;;;;;5009096;28;20724;-78
2022/09/27 10:20:32;;;;;;;6.55;4.70;;;22.10;90.80;;;;;;5009302;28;20196;-78
2022/09/27 10:23:11;;;;;;;6.43;4.15;;;22.10;90.60;;;;;;5012293;28;20710;-78
2022/09/27 10:25:49;;;;;;;9.07;4.45;;;22.20;90.20;;;;;;5011068;28;20215;-79
2022/09/27 10:28:49;;;;;;;7.00;4.40;;;22.10;89.10;;;;;;5003122;28;20246;-78
2022/09/27 10:34:05;;;;;;;7.95;4.00;;;22.20;89.20;;;;;;5011100;28;20254;-80
2022/09/27 10:36:37;;;;;;;7.03;4.20;;;22.20;88.90;;;;;;5012518;28;20664;-79
2022/09/27 10:39:21;;;;;;;8.63;4.75;;;22.20;88.80;;;;;;5009911;28;20211;-80
2022/09/27 10:41:50;;;;;;;7.05;4.60;;;22.20;88.70;;;;;;5010318;28;20295;-80
2022/09/27 10:44:25;;;;;;;10.30;4.63;;;22.30;88.80;;;;;;5010604;28;20232;-77
2022/09/27 10:46:56;;;;;;;5.97;4.07;;;22.30;88.80;;;;;;5008168;28;20252;-78
2022/09/27 10:49:29;;;;;;;8.88;4.07;;;22.30;88.70;;;;;;5002469;28;20196;-79
2022/09/27 10:51:59;;;;;;;8.07;4.30;;;22.30;88.40;;;;;;5013151;28;20228;-79
2022/09/27 10:54:32;;;;;;;7.05;3.97;;;22.30;88.40;;;;;;5009632;28;20196;-78
2022/09/27 10:57:03;;;;;;;6.45;3.92;;;22.40;88.70;;;;;;5012889;28;20191;-78
2022/09/27 10:59:34;;;;;;;6.38;4.13;;;22.40;88.60;;;;;;5011118;28;20196;-79
2022/09/27 11:02:04;;;;;;;5.95;3.88;;;22.40;88.50;;;;;;5012746;28;20239;-79
2022/09/27 11:04:34;;;;;;;6.18;4.10;;;22.50;88.50;;;;;;5010982;28;20232;-79
2022/09/27 11:07:18;;;;;;;7.22;3.85;;;22.50;88.20;;;;;;5009468;28;20710;-76
2022/09/27 11:09:53;;;;;;;7.82;4.28;;;22.60;87.70;;;;;;4998605;28;20196;-78
2022/09/27 11:12:24;;;;;;;6.68;4.32;;;22.70;87.50;;;;;;5004046;28;20200;-78
2022/09/27 11:14:59;;;;;;;5.60;3.95;;;22.80;87.20;;;;;;5007848;28;20196;-79
2022/09/27 11:17:35;;;;;;;6.60;3.72;;;22.90;86.90;;;;;;5007072;28;20653;-79
2022/09/27 11:20:13;;;;;;;5.38;3.50;;;22.90;86.50;;;;;;4998280;28;20236;-77
2022/09/27 11:23:05;;;;;;;6.22;3.85;;;23.00;85.90;;;;;;5000853;28;20266;-76
2022/09/27 11:25:43;;;;;;;10.88;4.15;;;23.10;85.30;;;;;;4991877;28;20231;-77
2022/09/27 11:28:22;;;;;;;10.88;4.65;;;23.10;84.60;;;;;;5009941;28;20192;-77
2022/09/27 11:31:02;;;;;;;5.18;3.72;;;23.10;84.30;;;;;;5007981;28;20212;-79
2022/09/27 11:33:55;;;;;;;6.15;3.83;;;23.20;84.60;;;;;;5007303;28;20250;-76
2022/09/27 11:36:34;;;;;;;5.75;3.63;;;23.20;84.60;;;;;;5005700;28;20224;-79
2022/09/27 11:39:09;;;;;;;4.68;3.33;;;23.20;84.50;;;;;;5007780;28;20234;-77
2022/09/27 11:41:53;;;;;;;4.88;3.72;;;23.20;84.50;;;;;;5010795;28;20214;-75
2022/09/27 11:44:45;;;;;;;4.90;3.83;;;23.20;84.20;;;;;;5010504;28;20196;-76
2022/09/27 11:47:20;;;;;;;6.45;3.90;;;23.20;84.00;;;;;;5008160;28;20289;-76
2022/09/27 11:50:20;;;;;;;8.05;4.60;;;23.30;84.10;;;;;;4998337;28;20196;-77
2022/09/27 11:53:04;;;;;;;7.93;4.03;;;23.40;84.20;;;;;;5006670;28;20633;-77
2022/09/27 11:55:45;;;;;;;8.82;3.72;;;23.60;84.00;;;;;;5009672;28;20232;-79
2022/09/27 11:58:23;;;;;;;4.78;3.58;;;23.60;83.00;;;;;;5009982;28;20196;-78
2022/09/27 12:01:03;;;;;;;6.63;3.92;;;23.60;82.20;;;;;;5009198;28;20262;-78
2022/09/27 12:04:00;;;;;;;5.78;3.53;;;23.60;82.10;;;;;;5010620;28;20224;-77
2022/09/27 12:06:40;;;;;;;7.10;4.55;;;23.60;81.30;;;;;;5005425;28;20212;-77
2022/09/27 12:09:12;;;;;;;5.60;3.80;;;23.60;81.60;;;;;;5005499;28;20522;-76
2022/09/27 12:11:44;;;;;;;5.25;3.45;;;23.60;81.80;;;;;;5007896;28;20196;-75
2022/09/27 12:14:21;;;;;;;10.05;3.85;;;23.60;81.80;;;;;;5008962;28;20239;-77
2022/09/27 12:16:55;;;;;;;7.35;3.70;;;23.60;81.90;;;;;;5001614;28;20185;-75
2022/09/27 12:19:28;;;;;;;8.68;3.97;;;23.60;81.80;;;;;;5005906;28;20267;-75
2022/09/27 12:22:01;;;;;;;6.07;3.67;;;23.60;81.90;;;;;;5004248;28;20220;-75
2022/09/27 12:24:30;;;;;;;8.75;4.35;;;23.60;81.80;;;;;;4995541;28;20287;-76
2022/09/27 12:27:03;;;;;;;7.13;3.83;;;23.60;81.60;;;;;;4995327;28;20228;-76
2022/09/27 12:29:35;;;;;;;11.02;5.88;;;23.60;81.50;;;;;;5002134;28;20239;-77
2022/09/27 12:32:13;;;;;;;5.15;3.65;;;23.60;81.60;;;;;;4997799;28;20204;-76
2022/09/27 12:34:48;;;;;;;8.00;4.22;;;23.60;81.80;;;;;;5006349;28;20188;-75
2022/09/27 12:37:19;;;;;;;8.77;4.30;;;23.60;81.90;;;;;;5009623;28;20196;-75
2022/09/27 12:39:53;;;;;;;6.63;4.00;;;23.50;81.90;;;;;;5003783;28;20287;-75
2022/09/27 12:42:24;;;;;;;8.65;4.22;;;23.50;82.00;;;;;;5007091;28;20177;-77
2022/09/27 12:44:54;;;;;;;7.25;4.50;;;23.50;82.10;;;;;;5006820;28;20196;-77
2022/09/27 12:47:35;;;;;;;7.55;4.35;;;23.40;82.20;;;;;;5012813;28;20308;-76
2022/09/27 12:50:11;;;;;;;6.85;3.85;;;23.40;82.40;;;;;;5004843;28;20263;-76
2022/09/27 12:52:43;;;;;;;7.93;4.18;;;23.40;82.40;;;;;;5009643;28;20196;-77
2022/09/27 12:55:37;;;;;;;6.32;4.03;;;23.30;82.60;;;;;;5013412;28;20587;-75
2022/09/27 12:58:28;;;;;;;5.75;3.97;;;23.30;82.80;;;;;;5013048;28;20193;-76
2022/09/27 13:01:03;;;;;;;6.82;4.60;;;23.20;82.80;;;;;;5004138;28;20251;-75
2022/09/27 13:04:00;;;;;;;7.65;4.97;;;23.20;82.90;;;;;;5007777;28;20215;-76
2022/09/27 13:06:40;;;;;;;9.70;5.40;;;23.20;83.00;;;;;;5008808;28;21065;-75
2022/09/27 13:09:34;;;;;;;9.38;4.40;;;23.20;83.10;;;;;;5005159;28;20235;-76
2022/09/27 13:12:10;;;;;;;7.20;4.60;;;23.20;83.20;;;;;;5012445;28;20283;-76
2022/09/27 13:14:48;;;;;;;11.05;4.75;;;23.20;83.20;;;;;;5014388;28;20200;-76
2022/09/27 13:17:36;;;;;;;11.32;4.90;;;23.20;83.50;;;;;;5003295;28;20255;-77
2022/09/27 13:20:43;;;;;;;7.22;5.20;;;23.10;83.90;;;;;;5005451;28;20223;-79
2022/09/27 13:23:51;;;;;;;7.13;4.80;;;23.10;84.40;;;;;;5010214;28;20205;-79